82C

Mauston-New Lisbon Union Airport

New Lisbon, Wisconsin, USA
METAR K82C 261255Z AUTO 00000KT 10SM CLR 08/00 A2991 RMK AO2 T00770003
Observed Flight Rules
Apr-26 @ 12:55 UTC (26 minutes ago) Visual Flight Rules
Visibility Clouds
10 miles
  • Clear skies
Temperatures Readings
Current 8°C / 46°F
Dewpoint 0°C / 32°F
Humidity 57%
Altimeter 29.91" Hg
Pressure 1013 hPa
Elevation 276
METAR K82C 261255Z AUTO 00000KT 10SM CLR 08/00 A2991 RMK AO2 T00770003
Observed Flight Rules
Apr-26 @ 12:55 UTC
(26 minutes ago)
VFR
Clouds
  • Clear skies
Temperature Dewpoint
8°C / 46°F 0°C / 32°F
Humidity Altimeter Pressure
57% 29.91" Hg 1013 hPa